F/V Jeremi Simon — FHAF — position and weather

sailwx.info

Track history (hours):
 
Tides and Currents Weather Stations Pressure Air Temp Water Temp Dewpoint Dewpoint Depression Visibility Wind Speed Wind Dir Waves Ship Positions

F/V Jeremi Simon

Last reported at 2015-Mar-05 02:33 UTC. Time now 2015-Mar-05 02:38 UTC.
Position N 46°30' W 001°52'.

Length 20 m.

Type: Other ship. MMSI: 227415000.

Date/timePositionNaut miles runAvg speedWind from/ knotsBaromVisibWave heightAir tempDewpointWater temp
2015-Mar-05 02:33N 46°30' W 001°52'3 3.5
2015-Mar-05 01:33N 46°30' W 001°47'0 0.0
2015-Mar-05 00:33N 46°30' W 001°47'0 0.0
2015-Mar-04 23:33N 46°30' W 001°47'2 2.1
2015-Mar-04 22:33N 46°28' W 001°49'10 9.6
2015-Mar-04 21:33N 46°31' W 002°03'12 9.6
2015-Mar-04 20:15N 46°35' W 002°20'7 0.1
2015-Mar-02 16:33N 46°28' W 002°18'9 9.3
2015-Mar-02 15:33N 46°28' W 002°05'9 9.3
2015-Mar-02 14:33N 46°29' W 001°51'3 2.9
2015-Mar-02 13:33N 46°30' W 001°47'0 0.0
2015-Mar-02 12:33N 46°30' W 001°47'0 0.0
2015-Mar-02 11:33N 46°30' W 001°47'5 4.6
2015-Mar-02 10:34N 46°28' W 001°54'10 9.8
2015-Mar-02 09:32N 46°29' W 002°08'  
2015-Feb-26 07:33N 46°42' W 002°07'8 7.6
2015-Feb-26 06:33N 46°42' W 001°57'  
Track history (hours):
 
Tides and Currents Weather Stations Pressure Air Temp Water Temp Dewpoint Dewpoint Depression Visibility Wind Speed Wind Dir Waves Ship Positions

F/V Jeremi Simon

Last reported at 2015-Mar-05 02:33 UTC. Time now 2015-Mar-05 02:38 UTC.
Position N 46°30' W 001°52'.

Length 20 m.

Type: Other ship. MMSI: 227415000.

Date/timePositionNaut miles runAvg speedWind from/ knotsBaromVisibWave heightAir tempDewpointWater temp
2015-Mar-05 02:33N 46°30' W 001°52'3 3.5
2015-Mar-05 01:33N 46°30' W 001°47'0 0.0
2015-Mar-05 00:33N 46°30' W 001°47'0 0.0
2015-Mar-04 23:33N 46°30' W 001°47'2 2.1
2015-Mar-04 22:33N 46°28' W 001°49'10 9.6
2015-Mar-04 21:33N 46°31' W 002°03'12 9.6
2015-Mar-04 20:15N 46°35' W 002°20'7 0.1
2015-Mar-02 16:33N 46°28' W 002°18'9 9.3
2015-Mar-02 15:33N 46°28' W 002°05'9 9.3
2015-Mar-02 14:33N 46°29' W 001°51'3 2.9
2015-Mar-02 13:33N 46°30' W 001°47'0 0.0
2015-Mar-02 12:33N 46°30' W 001°47'0 0.0
2015-Mar-02 11:33N 46°30' W 001°47'5 4.6
2015-Mar-02 10:34N 46°28' W 001°54'10 9.8
2015-Mar-02 09:32N 46°29' W 002°08'  
2015-Feb-26 07:33N 46°42' W 002°07'8 7.6
2015-Feb-26 06:33N 46°42' W 001°57'  

Dump ship's entire track history